sensor_id;sensor_type;location;lat;lon;timestamp;pressure;altitude;pressure_sealevel;temperature;humidity
33163;BME280;29282;45.656;11.302;2022-08-21T00:00:10;98133.34;;;24.64;54.59
33163;BME280;29282;45.656;11.302;2022-08-21T00:02:36;98133.34;;;24.64;54.71
33163;BME280;29282;45.656;11.302;2022-08-21T00:05:03;98134.50;;;24.63;54.62
33163;BME280;29282;45.656;11.302;2022-08-21T00:07:29;98129.75;;;24.63;54.64
33163;BME280;29282;45.656;11.302;2022-08-21T00:09:54;98133.34;;;24.64;54.50
33163;BME280;29282;45.656;11.302;2022-08-21T00:12:20;98124.22;;;24.63;54.60
33163;BME280;29282;45.656;11.302;2022-08-21T00:14:46;98129.75;;;24.63;54.57
33163;BME280;29282;45.656;11.302;2022-08-21T00:17:12;98126.19;;;24.63;54.37
33163;BME280;29282;45.656;11.302;2022-08-21T00:19:37;98120.66;;;24.63;54.36
33163;BME280;29282;45.656;11.302;2022-08-21T00:22:03;98119.88;;;24.62;54.25
33163;BME280;29282;45.656;11.302;2022-08-21T00:24:29;98116.31;;;24.61;54.12
33163;BME280;29282;45.656;11.302;2022-08-21T00:26:57;98117.09;;;24.62;54.28
33163;BME280;29282;45.656;11.302;2022-08-21T00:29:22;98114.31;;;24.62;54.46
33163;BME280;29282;45.656;11.302;2022-08-21T00:31:51;98113.53;;;24.61;54.27
33163;BME280;29282;45.656;11.302;2022-08-21T00:34:16;98123.81;;;24.61;54.40
33163;BME280;29282;45.656;11.302;2022-08-21T00:36:42;98114.31;;;24.62;54.24
33163;BME280;29282;45.656;11.302;2022-08-21T00:39:07;98122.63;;;24.62;54.11
33163;BME280;29282;45.656;11.302;2022-08-21T00:41:35;98124.63;;;24.61;54.30
33163;BME280;29282;45.656;11.302;2022-08-21T00:44:02;98123.81;;;24.61;54.39
33163;BME280;29282;45.656;11.302;2022-08-21T00:46:29;98119.06;;;24.61;54.21
33163;BME280;29282;45.656;11.302;2022-08-21T00:48:55;98118.28;;;24.61;54.41
33163;BME280;29282;45.656;11.302;2022-08-21T00:51:57;98107.19;;;24.61;54.09
33163;BME280;29282;45.656;11.302;2022-08-21T00:54:27;98106.41;;;24.60;54.13
33163;BME280;29282;45.656;11.302;2022-08-21T00:56:57;98098.88;;;24.61;54.01
33163;BME280;29282;45.656;11.302;2022-08-21T00:59:25;98096.13;;;24.61;54.05
33163;BME280;29282;45.656;11.302;2022-08-21T01:01:52;98089.78;;;24.60;54.11
33163;BME280;29282;45.656;11.302;2022-08-21T01:04:18;98091.75;;;24.60;54.05
33163;BME280;29282;45.656;11.302;2022-08-21T01:06:44;98087.03;;;24.60;54.17
33163;BME280;29282;45.656;11.302;2022-08-21T01:09:11;98088.97;;;24.60;54.02
33163;BME280;29282;45.656;11.302;2022-08-21T01:11:37;98084.25;;;24.60;54.05
33163;BME280;29282;45.656;11.302;2022-08-21T01:14:02;98082.63;;;24.59;54.29
33163;BME280;29282;45.656;11.302;2022-08-21T01:16:28;98085.03;;;24.61;53.99
33163;BME280;29282;45.656;11.302;2022-08-21T01:18:55;98090.16;;;24.59;54.21
33163;BME280;29282;45.656;11.302;2022-08-21T01:21:26;98088.19;;;24.59;54.07
33163;BME280;29282;45.656;11.302;2022-08-21T01:23:53;98086.19;;;24.60;53.94
33163;BME280;29282;45.656;11.302;2022-08-21T01:26:23;98092.56;;;24.60;53.99
33163;BME280;29282;45.656;11.302;2022-08-21T01:28:55;98087.38;;;24.59;54.05
33163;BME280;29282;45.656;11.302;2022-08-21T01:31:23;98078.28;;;24.58;54.11
33163;BME280;29282;45.656;11.302;2022-08-21T01:33:49;98076.31;;;24.59;53.93
33163;BME280;29282;45.656;11.302;2022-08-21T01:36:15;98076.31;;;24.59;54.02
33163;BME280;29282;45.656;11.302;2022-08-21T01:38:40;98078.28;;;24.58;54.01
33163;BME280;29282;45.656;11.302;2022-08-21T01:41:06;98077.09;;;24.59;53.85
33163;BME280;29282;45.656;11.302;2022-08-21T01:43:32;98073.53;;;24.59;54.07
33163;BME280;29282;45.656;11.302;2022-08-21T01:45:57;98067.19;;;24.58;53.98
33163;BME280;29282;45.656;11.302;2022-08-21T01:48:23;98068.00;;;24.59;53.86
33163;BME280;29282;45.656;11.302;2022-08-21T01:50:51;98067.19;;;24.58;53.84
33163;BME280;29282;45.656;11.302;2022-08-21T01:53:17;98061.66;;;24.58;54.02
33163;BME280;29282;45.656;11.302;2022-08-21T01:55:43;98058.09;;;24.58;53.93
33163;BME280;29282;45.656;11.302;2022-08-21T01:58:09;98058.09;;;24.58;53.97
33163;BME280;29282;45.656;11.302;2022-08-21T02:00:34;98049.00;;;24.57;54.04
33163;BME280;29282;45.656;11.302;2022-08-21T02:03:00;98051.78;;;24.57;53.72
33163;BME280;29282;45.656;11.302;2022-08-21T02:05:26;98050.97;;;24.57;53.73
33163;BME280;29282;45.656;11.302;2022-08-21T02:07:53;98045.44;;;24.57;53.89
33163;BME280;29282;45.656;11.302;2022-08-21T02:10:24;98045.44;;;24.57;53.83
33163;BME280;29282;45.656;11.302;2022-08-21T02:12:52;98054.16;;;24.59;53.74
33163;BME280;29282;45.656;11.302;2022-08-21T02:15:18;98047.81;;;24.58;53.83
33163;BME280;29282;45.656;11.302;2022-08-21T02:17:47;98045.44;;;24.57;53.94
33163;BME280;29282;45.656;11.302;2022-08-21T02:20:20;98045.44;;;24.57;53.67
33163;BME280;29282;45.656;11.302;2022-08-21T02:22:46;98048.22;;;24.57;53.75
33163;BME280;29282;45.656;11.302;2022-08-21T02:25:12;98043.47;;;24.57;53.60
33163;BME280;29282;45.656;11.302;2022-08-21T02:27:40;98039.91;;;24.57;53.77
33163;BME280;29282;45.656;11.302;2022-08-21T02:30:08;98043.47;;;24.57;53.47
33163;BME280;29282;45.656;11.302;2022-08-21T02:32:33;98039.06;;;24.56;53.73
33163;BME280;29282;45.656;11.302;2022-08-21T02:34:59;98045.44;;;24.57;53.68
33163;BME280;29282;45.656;11.302;2022-08-21T02:37:25;98048.22;;;24.57;53.51
33163;BME280;29282;45.656;11.302;2022-08-21T02:39:50;98039.06;;;24.56;53.52
33163;BME280;29282;45.656;11.302;2022-08-21T02:42:16;98031.59;;;24.57;53.60
33163;BME280;29282;45.656;11.302;2022-08-21T02:44:42;98032.75;;;24.56;53.72
33163;BME280;29282;45.656;11.302;2022-08-21T02:47:07;98043.81;;;24.56;53.56
33163;BME280;29282;45.656;11.302;2022-08-21T02:49:33;98038.28;;;24.56;53.78
33163;BME280;29282;45.656;11.302;2022-08-21T02:51:58;98031.97;;;24.55;53.79
33163;BME280;29282;45.656;11.302;2022-08-21T02:54:24;98036.69;;;24.55;53.62
33163;BME280;29282;45.656;11.302;2022-08-21T02:56:50;98020.88;;;24.55;53.71
33163;BME280;29282;45.656;11.302;2022-08-21T02:59:15;98029.97;;;24.56;53.87
33163;BME280;29282;45.656;11.302;2022-08-21T03:01:40;98035.13;;;24.54;53.66
33163;BME280;29282;45.656;11.302;2022-08-21T03:04:06;98030.38;;;24.54;53.72
33163;BME280;29282;45.656;11.302;2022-08-21T03:06:31;98036.69;;;24.55;53.81
33163;BME280;29282;45.656;11.302;2022-08-21T03:08:57;98036.69;;;24.55;53.56
33163;BME280;29282;45.656;11.302;2022-08-21T03:11:23;98036.69;;;24.55;53.82
33163;BME280;29282;45.656;11.302;2022-08-21T03:13:48;98031.16;;;24.55;53.66
33163;BME280;29282;45.656;11.302;2022-08-21T03:16:14;98036.69;;;24.55;53.67
33163;BME280;29282;45.656;11.302;2022-08-21T03:18:40;98033.16;;;24.54;53.62
33163;BME280;29282;45.656;11.302;2022-08-21T03:21:05;98022.44;;;24.53;53.61
33163;BME280;29282;45.656;11.302;2022-08-21T03:23:31;98027.97;;;24.53;53.68
33163;BME280;29282;45.656;11.302;2022-08-21T03:25:57;98028.75;;;24.53;53.73
33163;BME280;29282;45.656;11.302;2022-08-21T03:28:23;98021.28;;;24.54;53.68
33163;BME280;29282;45.656;11.302;2022-08-21T03:30:50;98020.84;;;24.52;53.50
33163;BME280;29282;45.656;11.302;2022-08-21T03:33:16;98027.97;;;24.53;53.38
33163;BME280;29282;45.656;11.302;2022-08-21T03:35:44;98027.97;;;24.53;53.29
33163;BME280;29282;45.656;11.302;2022-08-21T03:38:11;98026.00;;;24.53;53.60
33163;BME280;29282;45.656;11.302;2022-08-21T03:40:38;98024.41;;;24.52;53.64
33163;BME280;29282;45.656;11.302;2022-08-21T03:43:07;98022.44;;;24.53;53.42
33163;BME280;29282;45.656;11.302;2022-08-21T03:45:34;98020.84;;;24.52;53.50
33163;BME280;29282;45.656;11.302;2022-08-21T03:48:03;98021.63;;;24.52;53.51
33163;BME280;29282;45.656;11.302;2022-08-21T03:50:31;98023.22;;;24.53;53.50
33163;BME280;29282;45.656;11.302;2022-08-21T03:52:57;98016.88;;;24.53;53.41
33163;BME280;29282;45.656;11.302;2022-08-21T03:55:24;98019.66;;;24.53;53.49
33163;BME280;29282;45.656;11.302;2022-08-21T03:57:50;98023.63;;;24.52;53.32
33163;BME280;29282;45.656;11.302;2022-08-21T04:00:17;98018.88;;;24.52;53.41
33163;BME280;29282;45.656;11.302;2022-08-21T04:02:44;98016.09;;;24.52;53.24
33163;BME280;29282;45.656;11.302;2022-08-21T04:05:13;98024.41;;;24.52;53.47
33163;BME280;29282;45.656;11.302;2022-08-21T04:07:39;98025.59;;;24.51;53.60
33163;BME280;29282;45.656;11.302;2022-08-21T04:10:06;98015.31;;;24.52;53.58
33163;BME280;29282;45.656;11.302;2022-08-21T04:12:32;98016.50;;;24.51;53.66
33163;BME280;29282;45.656;11.302;2022-08-21T04:14:58;98018.06;;;24.52;53.47
33163;BME280;29282;45.656;11.302;2022-08-21T04:17:24;98013.72;;;24.51;53.36
33163;BME280;29282;45.656;11.302;2022-08-21T04:19:50;98017.66;;;24.50;53.35
33163;BME280;29282;45.656;11.302;2022-08-21T04:22:16;98023.63;;;24.52;53.25
33163;BME280;29282;45.656;11.302;2022-08-21T04:24:42;98022.03;;;24.51;53.29
33163;BME280;29282;45.656;11.302;2022-08-21T04:27:07;98029.16;;;24.52;53.34
33163;BME280;29282;45.656;11.302;2022-08-21T04:29:33;98022.81;;;24.51;53.25
33163;BME280;29282;45.656;11.302;2022-08-21T04:31:58;98020.41;;;24.50;53.42
33163;BME280;29282;45.656;11.302;2022-08-21T04:34:24;98023.19;;;24.50;53.34
33163;BME280;29282;45.656;11.302;2022-08-21T04:36:50;98019.25;;;24.51;53.36
33163;BME280;29282;45.656;11.302;2022-08-21T04:39:15;98025.59;;;24.51;53.46
33163;BME280;29282;45.656;11.302;2022-08-21T04:41:41;98025.59;;;24.51;53.36
33163;BME280;29282;45.656;11.302;2022-08-21T04:44:06;98024.81;;;24.51;53.45
33163;BME280;29282;45.656;11.302;2022-08-21T04:46:34;98023.19;;;24.50;53.10
33163;BME280;29282;45.656;11.302;2022-08-21T04:48:59;98022.03;;;24.51;53.47
33163;BME280;29282;45.656;11.302;2022-08-21T04:51:31;98030.34;;;24.51;53.24
33163;BME280;29282;45.656;11.302;2022-08-21T04:54:12;98031.50;;;24.50;53.25
33163;BME280;29282;45.656;11.302;2022-08-21T04:56:43;98028.72;;;24.50;53.02
33163;BME280;29282;45.656;11.302;2022-08-21T04:59:13;98032.31;;;24.50;53.18
33163;BME280;29282;45.656;11.302;2022-08-21T05:01:42;98022.41;;;24.49;53.21
33163;BME280;29282;45.656;11.302;2022-08-21T05:04:11;98027.94;;;24.49;53.13
33163;BME280;29282;45.656;11.302;2022-08-21T05:06:40;98025.97;;;24.50;53.22
33163;BME280;29282;45.656;11.302;2022-08-21T05:09:08;98027.16;;;24.49;53.24
33163;BME280;29282;45.656;11.302;2022-08-21T05:11:35;98034.28;;;24.50;53.02
33163;BME280;29282;45.656;11.302;2022-08-21T05:14:02;98027.16;;;24.49;53.09
33163;BME280;29282;45.656;11.302;2022-08-21T05:16:28;98022.41;;;24.49;53.16
33163;BME280;29282;45.656;11.302;2022-08-21T05:18:54;98029.91;;;24.49;53.28
33163;BME280;29282;45.656;11.302;2022-08-21T05:21:19;98030.72;;;24.49;53.37
33163;BME280;29282;45.656;11.302;2022-08-21T05:23:46;98034.28;;;24.50;52.90
33163;BME280;29282;45.656;11.302;2022-08-21T05:26:11;98035.47;;;24.49;53.21
33163;BME280;29282;45.656;11.302;2022-08-21T05:28:37;98025.16;;;24.49;53.07
33163;BME280;29282;45.656;11.302;2022-08-21T05:31:05;98033.47;;;24.49;53.29
33163;BME280;29282;45.656;11.302;2022-08-21T05:33:30;98027.94;;;24.49;53.28
33163;BME280;29282;45.656;11.302;2022-08-21T05:35:57;98031.59;;;24.57;53.07
33163;BME280;29282;45.656;11.302;2022-08-21T05:38:23;98024.91;;;24.65;52.74
33163;BME280;29282;45.656;11.302;2022-08-21T05:40:49;98025.75;;;24.69;52.68
33163;BME280;29282;45.656;11.302;2022-08-21T05:43:15;98026.56;;;24.73;52.53
33163;BME280;29282;45.656;11.302;2022-08-21T05:45:42;98028.97;;;24.75;52.52
33163;BME280;29282;45.656;11.302;2022-08-21T05:48:22;98031.75;;;24.78;52.58
33163;BME280;29282;45.656;11.302;2022-08-21T05:50:49;98026.22;;;24.78;52.56
33163;BME280;29282;45.656;11.302;2022-08-21T05:53:16;98028.59;;;24.80;52.47
33163;BME280;29282;45.656;11.302;2022-08-21T05:55:43;98025.81;;;24.80;52.26
33163;BME280;29282;45.656;11.302;2022-08-21T05:58:13;98032.56;;;24.82;52.36
33163;BME280;29282;45.656;11.302;2022-08-21T06:00:39;98020.72;;;24.82;52.28
33163;BME280;29282;45.656;11.302;2022-08-21T06:03:04;98022.28;;;24.83;52.41
33163;BME280;29282;45.656;11.302;2022-08-21T06:05:38;98025.88;;;24.83;52.29
33163;BME280;29282;45.656;11.302;2022-08-21T06:08:04;98021.13;;;24.84;52.10
33163;BME280;29282;45.656;11.302;2022-08-21T06:10:29;98023.50;;;24.85;52.20
33163;BME280;29282;45.656;11.302;2022-08-21T06:12:55;98017.97;;;24.85;52.29
33163;BME280;29282;45.656;11.302;2022-08-21T06:15:20;98025.91;;;24.87;52.38
33163;BME280;29282;45.656;11.302;2022-08-21T06:17:46;98021.94;;;24.88;52.17
33163;BME280;29282;45.656;11.302;2022-08-21T06:20:12;98024.72;;;24.88;51.99
33163;BME280;29282;45.656;11.302;2022-08-21T06:22:37;98022.72;;;24.89;52.20
33163;BME280;29282;45.656;11.302;2022-08-21T06:25:03;98024.31;;;24.90;52.29
33163;BME280;29282;45.656;11.302;2022-08-21T06:27:29;98014.84;;;24.91;52.16
33163;BME280;29282;45.656;11.302;2022-08-21T06:29:54;98010.09;;;24.91;52.27
33163;BME280;29282;45.656;11.302;2022-08-21T06:32:22;98016.44;;;24.92;52.15
33163;BME280;29282;45.656;11.302;2022-08-21T06:34:48;98028.31;;;24.92;52.05
33163;BME280;29282;45.656;11.302;2022-08-21T06:37:13;98021.56;;;24.93;52.15
33163;BME280;29282;45.656;11.302;2022-08-21T06:39:39;98023.56;;;24.93;51.94
33163;BME280;29282;45.656;11.302;2022-08-21T06:42:04;98027.50;;;24.92;52.18
33163;BME280;29282;45.656;11.302;2022-08-21T06:44:30;98018.78;;;24.93;52.03
33163;BME280;29282;45.656;11.302;2022-08-21T06:46:56;98026.31;;;24.93;52.06
33163;BME280;29282;45.656;11.302;2022-08-21T06:49:22;98011.31;;;24.94;52.13
33163;BME280;29282;45.656;11.302;2022-08-21T06:51:48;98019.63;;;24.94;52.08
33163;BME280;29282;45.656;11.302;2022-08-21T06:54:13;98025.94;;;24.94;52.17
33163;BME280;29282;45.656;11.302;2022-08-21T06:56:39;98015.66;;;24.95;52.03
33163;BME280;29282;45.656;11.302;2022-08-21T06:59:05;98013.25;;;24.93;52.01
33163;BME280;29282;45.656;11.302;2022-08-21T07:01:31;98020.00;;;24.96;52.07
33163;BME280;29282;45.656;11.302;2022-08-21T07:03:57;98016.44;;;24.95;52.09
33163;BME280;29282;45.656;11.302;2022-08-21T07:06:22;98021.63;;;24.97;51.89
33163;BME280;29282;45.656;11.302;2022-08-21T07:08:48;98018.44;;;24.95;52.04
33163;BME280;29282;45.656;11.302;2022-08-21T07:11:19;98019.22;;;24.95;52.09
33163;BME280;29282;45.656;11.302;2022-08-21T07:13:45;98007.34;;;24.95;51.82
33163;BME280;29282;45.656;11.302;2022-08-21T07:16:11;98015.25;;;24.96;51.93
33163;BME280;29282;45.656;11.302;2022-08-21T07:18:37;98011.69;;;24.96;52.05
33163;BME280;29282;45.656;11.302;2022-08-21T07:21:04;98011.69;;;24.96;52.22
33163;BME280;29282;45.656;11.302;2022-08-21T07:23:32;98008.94;;;24.96;52.12
33163;BME280;29282;45.656;11.302;2022-08-21T07:25:59;98007.34;;;24.95;52.01
33163;BME280;29282;45.656;11.302;2022-08-21T07:28:26;98012.88;;;24.95;51.89
33163;BME280;29282;45.656;11.302;2022-08-21T07:30:53;98007.72;;;24.93;52.06
33163;BME280;29282;45.656;11.302;2022-08-21T07:33:20;98005.75;;;24.94;51.97
33163;BME280;29282;45.656;11.302;2022-08-21T07:35:45;98009.69;;;24.93;52.08
33163;BME280;29282;45.656;11.302;2022-08-21T07:38:11;98007.31;;;24.91;51.99
33163;BME280;29282;45.656;11.302;2022-08-21T07:40:36;98007.31;;;24.91;52.06
33163;BME280;29282;45.656;11.302;2022-08-21T07:43:02;98017.63;;;24.91;52.25
33163;BME280;29282;45.656;11.302;2022-08-21T07:45:28;98003.75;;;24.91;52.26
33163;BME280;29282;45.656;11.302;2022-08-21T07:47:54;98009.66;;;24.89;52.28
33163;BME280;29282;45.656;11.302;2022-08-21T07:50:19;98013.63;;;24.88;52.12
33163;BME280;29282;45.656;11.302;2022-08-21T07:52:45;98012.84;;;24.88;52.29
33163;BME280;29282;45.656;11.302;2022-08-21T07:55:13;98010.06;;;24.88;52.59
33163;BME280;29282;45.656;11.302;2022-08-21T07:57:39;98005.69;;;24.87;52.29
33163;BME280;29282;45.656;11.302;2022-08-21T08:00:08;97999.34;;;24.86;52.31
33163;BME280;29282;45.656;11.302;2022-08-21T08:02:35;97995.00;;;24.85;52.23
33163;BME280;29282;45.656;11.302;2022-08-21T08:05:03;97996.19;;;24.84;52.48
33163;BME280;29282;45.656;11.302;2022-08-21T08:07:30;97993.41;;;24.84;52.44
33163;BME280;29282;45.656;11.302;2022-08-21T08:09:55;97994.22;;;24.84;52.35
33163;BME280;29282;45.656;11.302;2022-08-21T08:12:21;97992.63;;;24.83;52.56
33163;BME280;29282;45.656;11.302;2022-08-21T08:14:47;97992.63;;;24.83;52.69
33163;BME280;29282;45.656;11.302;2022-08-21T08:17:12;97991.81;;;24.83;52.83
33163;BME280;29282;45.656;11.302;2022-08-21T08:19:39;97985.47;;;24.82;52.73
33163;BME280;29282;45.656;11.302;2022-08-21T08:22:15;97978.78;;;24.83;52.78
33163;BME280;29282;45.656;11.302;2022-08-21T08:24:41;97988.66;;;24.84;52.68
33163;BME280;29282;45.656;11.302;2022-08-21T08:27:07;97981.94;;;24.85;52.93
33163;BME280;29282;45.656;11.302;2022-08-21T08:29:32;97980.34;;;24.84;52.92
33163;BME280;29282;45.656;11.302;2022-08-21T08:31:58;97976.03;;;24.87;52.99
33163;BME280;29282;45.656;11.302;2022-08-21T08:34:24;97968.50;;;24.88;53.06
33163;BME280;29282;45.656;11.302;2022-08-21T08:36:49;97964.94;;;24.87;52.97
33163;BME280;29282;45.656;11.302;2022-08-21T08:39:15;97959.41;;;24.87;53.10
33163;BME280;29282;45.656;11.302;2022-08-21T08:41:42;97969.66;;;24.87;52.85
33163;BME280;29282;45.656;11.302;2022-08-21T08:44:10;97958.56;;;24.87;52.99
33163;BME280;29282;45.656;11.302;2022-08-21T08:46:38;97964.13;;;24.87;53.00
33163;BME280;29282;45.656;11.302;2022-08-21T08:49:15;97966.09;;;24.86;53.05
33163;BME280;29282;45.656;11.302;2022-08-21T08:51:53;97968.88;;;24.86;52.87
33163;BME280;29282;45.656;11.302;2022-08-21T08:54:43;97968.88;;;24.86;52.95
33163;BME280;29282;45.656;11.302;2022-08-21T08:57:21;97968.09;;;24.85;52.93
33163;BME280;29282;45.656;11.302;2022-08-21T08:59:56;97973.63;;;24.85;53.11
33163;BME280;29282;45.656;11.302;2022-08-21T09:02:23;97966.50;;;24.84;52.99
33163;BME280;29282;45.656;11.302;2022-08-21T09:04:50;97971.66;;;24.86;53.02
33163;BME280;29282;45.656;11.302;2022-08-21T09:10:54;97963.34;;;24.86;53.01
33163;BME280;29282;45.656;11.302;2022-08-21T09:16:18;97963.34;;;24.86;52.93
33163;BME280;29282;45.656;11.302;2022-08-21T09:21:48;97957.00;;;24.85;52.96
33163;BME280;29282;45.656;11.302;2022-08-21T09:29:30;97954.22;;;24.85;52.85
33163;BME280;29282;45.656;11.302;2022-08-21T09:31:57;97953.44;;;24.85;52.99
33163;BME280;29282;45.656;11.302;2022-08-21T09:34:28;97951.44;;;24.85;52.92
33163;BME280;29282;45.656;11.302;2022-08-21T09:36:54;97953.03;;;24.87;52.98
33163;BME280;29282;45.656;11.302;2022-08-21T09:39:30;97950.25;;;24.87;52.85
33163;BME280;29282;45.656;11.302;2022-08-21T09:42:04;97951.88;;;24.88;52.74
33163;BME280;29282;45.656;11.302;2022-08-21T09:44:35;97940.78;;;24.88;52.50
33163;BME280;29282;45.656;11.302;2022-08-21T09:47:06;97941.59;;;24.88;52.21
33163;BME280;29282;45.656;11.302;2022-08-21T09:49:35;97939.59;;;24.89;52.07
33163;BME280;29282;45.656;11.302;2022-08-21T09:52:03;97929.72;;;24.88;52.03
33163;BME280;29282;45.656;11.302;2022-08-21T09:54:35;97936.03;;;24.88;52.08
33163;BME280;29282;45.656;11.302;2022-08-21T09:59:52;97934.47;;;24.87;51.89
33163;BME280;29282;45.656;11.302;2022-08-21T10:02:30;97932.47;;;24.88;51.79
33163;BME280;29282;45.656;11.302;2022-08-21T10:04:59;97931.28;;;24.89;51.84
33163;BME280;29282;45.656;11.302;2022-08-21T10:07:28;97929.72;;;24.88;51.89
33163;BME280;29282;45.656;11.302;2022-08-21T10:10:13;97927.72;;;24.88;51.77
33163;BME280;29282;45.656;11.302;2022-08-21T10:13:03;97929.72;;;24.88;51.85
33163;BME280;29282;45.656;11.302;2022-08-21T10:15:51;97933.28;;;24.88;51.73
33163;BME280;29282;45.656;11.302;2022-08-21T10:21:01;97927.72;;;24.88;51.67
33163;BME280;29282;45.656;11.302;2022-08-21T10:23:47;97934.84;;;24.89;51.62
33163;BME280;29282;45.656;11.302;2022-08-21T10:26:30;97930.50;;;24.88;51.92
33163;BME280;29282;45.656;11.302;2022-08-21T10:37:29;97927.72;;;24.88;52.10
33163;BME280;29282;45.656;11.302;2022-08-21T10:47:57;97926.53;;;24.89;52.05
33163;BME280;29282;45.656;11.302;2022-08-21T10:50:42;97937.25;;;24.91;51.92
33163;BME280;29282;45.656;11.302;2022-08-21T10:56:22;97921.78;;;24.90;51.89
33163;BME280;29282;45.656;11.302;2022-08-21T10:59:12;97921.00;;;24.89;51.98
33163;BME280;29282;45.656;11.302;2022-08-21T11:02:30;97927.31;;;24.90;52.09
33163;BME280;29282;45.656;11.302;2022-08-21T11:05:46;97930.09;;;24.90;52.00
33163;BME280;29282;45.656;11.302;2022-08-21T11:07:53;97928.94;;;24.91;52.05
33163;BME280;29282;45.656;11.302;2022-08-21T11:10:41;97930.91;;;24.90;52.10
33163;BME280;29282;45.656;11.302;2022-08-21T11:13:27;97921.41;;;24.91;52.00
33163;BME280;29282;45.656;11.302;2022-08-21T11:18:49;97917.44;;;24.92;51.78
33163;BME280;29282;45.656;11.302;2022-08-21T11:21:42;97918.66;;;24.91;51.96
33163;BME280;29282;45.656;11.302;2022-08-21T11:24:57;97913.09;;;24.88;52.20
33163;BME280;29282;45.656;11.302;2022-08-21T11:29:41;97914.66;;;24.85;52.17
33163;BME280;29282;45.656;11.302;2022-08-21T11:45:52;97900.75;;;24.78;52.04
33163;BME280;29282;45.656;11.302;2022-08-21T11:51:00;97899.53;;;24.75;51.84
33163;BME280;29282;45.656;11.302;2022-08-21T11:53:39;97895.19;;;24.74;51.47
33163;BME280;29282;45.656;11.302;2022-08-21T11:56:51;97893.59;;;24.73;51.75
33163;BME280;29282;45.656;11.302;2022-08-21T11:59:16;97890.03;;;24.73;51.35
33163;BME280;29282;45.656;11.302;2022-08-21T12:01:46;97894.78;;;24.72;51.19
33163;BME280;29282;45.656;11.302;2022-08-21T12:04:30;97892.00;;;24.72;51.37
33163;BME280;29282;45.656;11.302;2022-08-21T12:07:10;97893.19;;;24.71;51.28
33163;BME280;29282;45.656;11.302;2022-08-21T12:09:36;97883.31;;;24.70;50.95
33163;BME280;29282;45.656;11.302;2022-08-21T12:14:43;97883.31;;;24.70;50.89
33163;BME280;29282;45.656;11.302;2022-08-21T12:17:21;97881.69;;;24.69;50.81
33163;BME280;29282;45.656;11.302;2022-08-21T12:20:16;97880.91;;;24.69;50.72
33163;BME280;29282;45.656;11.302;2022-08-21T12:22:47;97887.22;;;24.69;50.41
33163;BME280;29282;45.656;11.302;2022-08-21T12:25:17;97887.22;;;24.69;50.00
33163;BME280;29282;45.656;11.302;2022-08-21T12:33:03;97868.25;;;24.68;49.49
33163;BME280;29282;45.656;11.302;2022-08-21T12:35:37;97875.34;;;24.65;49.54
33163;BME280;29282;45.656;11.302;2022-08-21T12:38:14;97868.59;;;24.66;49.08
33163;BME280;29282;45.656;11.302;2022-08-21T12:40:48;97865.03;;;24.66;49.12
33163;BME280;29282;45.656;11.302;2022-08-21T12:43:41;97861.50;;;24.65;48.80
33163;BME280;29282;45.656;11.302;2022-08-21T12:46:18;97852.38;;;24.65;48.78
33163;BME280;29282;45.656;11.302;2022-08-21T12:48:51;97849.63;;;24.65;49.09
33163;BME280;29282;45.656;11.302;2022-08-21T12:51:31;97851.59;;;24.64;48.46
33163;BME280;29282;45.656;11.302;2022-08-21T12:53:59;97845.28;;;24.64;48.43
33163;BME280;29282;45.656;11.302;2022-08-21T12:56:28;97846.06;;;24.64;49.09
33163;BME280;29282;45.656;11.302;2022-08-21T12:59:04;97840.53;;;24.64;48.83
33163;BME280;29282;45.656;11.302;2022-08-21T13:01:38;97833.38;;;24.63;48.56
33163;BME280;29282;45.656;11.302;2022-08-21T13:04:12;97834.19;;;24.64;48.56
33163;BME280;29282;45.656;11.302;2022-08-21T13:06:42;97843.28;;;24.64;48.25
33163;BME280;29282;45.656;11.302;2022-08-21T13:09:15;97832.59;;;24.63;48.66
33163;BME280;29282;45.656;11.302;2022-08-21T13:11:44;97830.59;;;24.63;48.41
33163;BME280;29282;45.656;11.302;2022-08-21T13:14:20;97831.78;;;24.62;48.35
33163;BME280;29282;45.656;11.302;2022-08-21T13:16:53;97834.56;;;24.62;47.97
33163;BME280;29282;45.656;11.302;2022-08-21T13:19:19;97823.47;;;24.62;47.61
33163;BME280;29282;45.656;11.302;2022-08-21T13:21:45;97831.78;;;24.62;48.00
33163;BME280;29282;45.656;11.302;2022-08-21T13:24:21;97829.44;;;24.64;48.51
33163;BME280;29282;45.656;11.302;2022-08-21T13:26:47;97825.91;;;24.67;48.13
33163;BME280;29282;45.656;11.302;2022-08-21T13:29:16;97812.06;;;24.71;47.59
33163;BME280;29282;45.656;11.302;2022-08-21T13:31:48;97811.28;;;24.74;47.23
33163;BME280;29282;45.656;11.302;2022-08-21T13:34:15;97813.66;;;24.75;47.25
33163;BME280;29282;45.656;11.302;2022-08-21T13:36:44;97809.69;;;24.76;47.04
33163;BME280;29282;45.656;11.302;2022-08-21T13:39:12;97809.31;;;24.78;46.93
33163;BME280;29282;45.656;11.302;2022-08-21T13:41:42;97820.00;;;24.79;46.80
33163;BME280;29282;45.656;11.302;2022-08-21T13:44:42;97803.38;;;24.79;47.02
33163;BME280;29282;45.656;11.302;2022-08-21T13:47:10;97806.56;;;24.81;46.90
33163;BME280;29282;45.656;11.302;2022-08-21T13:49:39;97806.56;;;24.81;46.96
33163;BME280;29282;45.656;11.302;2022-08-21T13:52:15;97810.13;;;24.82;47.13
33163;BME280;29282;45.656;11.302;2022-08-21T13:54:42;97809.75;;;24.83;47.25
33163;BME280;29282;45.656;11.302;2022-08-21T13:57:32;97808.16;;;24.82;47.42
33163;BME280;29282;45.656;11.302;2022-08-21T14:00:24;97801.44;;;24.83;47.47
33163;BME280;29282;45.656;11.302;2022-08-21T14:02:52;97799.47;;;24.84;47.61
33163;BME280;29282;45.656;11.302;2022-08-21T14:05:22;97804.22;;;24.83;47.51
33163;BME280;29282;45.656;11.302;2022-08-21T14:07:51;97795.50;;;24.85;47.78
33163;BME280;29282;45.656;11.302;2022-08-21T14:10:23;97799.06;;;24.85;47.80